Time;durP1;ratioP1;P1;durP2;ratioP2;P2;SDS_P1;SDS_P2;PMS_P1;PMS_P2;Temp;Humidity;BMP_temperature;BMP_pressure;BME280_temperature;BME280_humidity;BME280_pressure;Samples;Min_cycle;Max_cycle;Signal;HPM_P1;HPM_P2
2022/09/20 00:00:33;;;;;;;3.50;0.30;;;;;;;9.28;76.84;98873.27;106406;1271;22534;-81
2022/09/20 00:03:25;;;;;;;1.80;0.40;;;;;;;9.27;76.72;98874.97;106351;1272;22528;-81
2022/09/20 00:05:52;;;;;;;1.00;0.40;;;;;;;9.23;76.94;98876.63;106347;1274;23896;-80
2022/09/20 00:09:11;;;;;;;2.00;0.50;;;;;;;9.20;76.80;98877.40;106068;1274;24347;-81
2022/09/20 00:12:11;;;;;;;;;;;;;;;;;;;;;
2022/09/20 00:14:49;;;;;;;3.50;0.40;;;;;;;9.14;76.95;98877.75;106056;1272;24396;-85
2022/09/20 00:17:18;;;;;;;1.60;0.40;;;;;;;9.13;76.97;98879.80;106062;1274;23055;-80
2022/09/20 00:20:09;;;;;;;2.70;0.50;;;;;;;9.11;76.86;98883.16;105971;1274;25307;-80
2022/09/20 00:22:38;;;;;;;3.30;0.70;;;;;;;9.09;76.85;98884.02;106116;1273;23903;-82
2022/09/20 00:25:07;;;;;;;1.60;0.50;;;;;;;9.09;76.99;98886.17;105994;1274;24208;-80
2022/09/20 00:27:38;;;;;;;2.50;0.60;;;;;;;9.08;76.95;98887.81;106361;1271;24324;-82
2022/09/20 00:30:23;;;;;;;;;;;;;;;;;;;;;
2022/09/20 00:33:32;;;;;;;;;;;;;;;;;;;;;
2022/09/20 00:36:12;;;;;;;3.70;0.60;;;;;;;9.06;77.00;98898.22;106246;1271;22534;-84
2022/09/20 00:38:44;;;;;;;3.00;0.50;;;;;;;9.05;77.05;98903.65;105926;1273;22551;-84
2022/09/20 00:41:40;;;;;;;4.10;0.50;;;;;;;9.05;77.17;98903.99;106043;1274;25570;-85
2022/09/20 00:44:56;;;;;;;2.00;0.40;;;;;;;9.09;77.15;98899.09;105926;1273;22564;-82
2022/09/20 00:48:00;;;;;;;2.20;0.40;;;;;;;9.12;77.13;98904.58;105717;1279;25247;-82
2022/09/20 00:50:47;;;;;;;4.30;0.50;;;;;;;9.13;77.24;98905.02;105658;1280;22930;-80
2022/09/20 00:54:07;;;;;;;;;;;;;;;;;;;;;
2022/09/20 00:56:40;;;;;;;3.10;0.60;;;;;;;9.11;77.26;98901.28;105677;1279;23325;-81
2022/09/20 00:59:35;;;;;;;1.80;0.50;;;;;;;9.11;77.21;98897.76;105725;1279;25999;-80
2022/09/20 01:02:15;;;;;;;2.90;0.60;;;;;;;9.11;77.29;98898.11;105682;1280;25355;-81
2022/09/20 01:04:43;;;;;;;2.60;0.50;;;;;;;9.11;77.21;98897.52;105554;1280;22583;-87
2022/09/20 01:07:25;;;;;;;4.20;0.60;;;;;;;9.13;77.34;98898.11;105654;1281;22541;-80
2022/09/20 01:09:55;;;;;;;2.10;0.60;;;;;;;9.16;77.25;98895.98;105700;1279;22733;-80
2022/09/20 01:12:34;;;;;;;2.80;0.70;;;;;;;9.16;77.21;98898.97;105652;1280;22705;-84
2022/09/20 01:15:06;;;;;;;2.20;0.50;;;;;;;9.14;77.18;98895.91;105686;1279;22614;-86
2022/09/20 01:17:41;;;;;;;2.70;0.70;;;;;;;9.11;77.28;98892.73;105648;1280;25360;-80
2022/09/20 01:20:23;;;;;;;5.00;1.00;;;;;;;9.10;77.28;98896.55;105675;1281;24308;-81
2022/09/20 01:23:18;;;;;;;3.90;0.80;;;;;;;9.10;77.35;98890.19;105708;1277;22542;-83
2022/09/20 01:26:36;;;;;;;3.20;0.80;;;;;;;9.11;77.50;98889.55;106312;1271;22843;-81
2022/09/20 01:29:33;;;;;;;3.50;0.80;;;;;;;9.15;77.41;98889.45;106344;1271;24277;-83
2022/09/20 01:32:13;;;;;;;3.80;0.90;;;;;;;9.15;77.53;98888.20;106278;1271;24302;-86
2022/09/20 01:35:12;;;;;;;3.40;0.80;;;;;;;9.18;77.58;98887.79;106072;1271;22544;-80
2022/09/20 01:38:34;;;;;;;3.60;1.00;;;;;;;9.18;77.53;98887.11;106180;1271;22732;-80
2022/09/20 01:41:32;;;;;;;3.60;1.10;;;;;;;9.18;77.44;98889.06;105733;1279;22699;-82
2022/09/20 01:44:51;;;;;;;3.40;1.50;;;;;;;9.17;77.63;98886.66;105699;1279;25411;-81
2022/09/20 01:48:29;;;;;;;1.90;0.60;;;;;;;9.19;77.61;98890.25;105678;1280;24044;-80
2022/09/20 01:51:58;;;;;;;;;;;;;;;;;;;;;
2022/09/20 01:54:56;;;;;;;3.50;1.10;;;;;;;9.17;77.51;98896.56;105143;1285;22623;-87
2022/09/20 01:59:06;;;;;;;3.60;1.10;;;;;;;9.15;77.42;98896.17;105133;1285;22600;-82
2022/09/20 02:01:51;;;;;;;3.60;1.10;;;;;;;9.14;77.55;98896.27;105045;1287;25454;-79
2022/09/20 02:05:47;;;;;;;2.60;0.90;;;;;;;9.14;77.66;98890.08;105148;1285;24559;-85
2022/09/20 02:08:37;;;;;;;5.20;1.40;;;;;;;9.15;77.66;98890.52;104834;1288;25876;-79
2022/09/20 02:11:59;;;;;;;4.10;1.10;;;;;;;9.14;77.66;98891.66;104837;1288;23477;-81
2022/09/20 02:15:17;;;;;;;;;;;;;;;;;;;;;
2022/09/20 02:18:36;;;;;;;2.70;0.80;;;;;;;9.10;77.63;98891.73;105433;1285;22541;-82
2022/09/20 02:21:52;;;;;;;4.00;1.10;;;;;;;9.11;77.51;98891.34;105371;1284;25530;-80
2022/09/20 02:25:14;;;;;;;4.30;0.90;;;;;;;9.09;77.62;98895.06;105589;1285;24330;-81
2022/09/20 02:29:22;;;;;;;3.30;1.50;;;;;;;9.04;77.67;98896.42;105509;1282;23971;-81
2022/09/20 02:32:34;;;;;;;;;;;;;;;;;;;;;
2022/09/20 02:35:56;;;;;;;3.10;1.10;;;;;;;8.99;77.61;98903.55;105837;1278;24217;-87
2022/09/20 02:39:05;;;;;;;4.20;0.90;;;;;;;8.97;77.59;98902.77;105800;1278;22591;-83
2022/09/20 02:42:23;;;;;;;2.90;0.90;;;;;;;8.98;77.88;98912.52;105671;1280;22730;-80
2022/09/20 02:45:48;;;;;;;6.00;1.00;;;;;;;8.99;77.79;98913.17;105662;1277;22563;-86
2022/09/20 02:48:59;;;;;;;4.50;1.30;;;;;;;8.98;77.81;98918.89;105871;1277;23350;-80
2022/09/20 02:51:42;;;;;;;3.90;1.00;;;;;;;8.99;77.78;98918.80;105960;1277;23012;-82
2022/09/20 02:54:27;;;;;;;3.30;0.90;;;;;;;9.01;77.89;98922.23;105915;1277;22630;-85
2022/09/20 02:57:38;;;;;;;3.00;0.90;;;;;;;9.02;77.76;98921.77;105742;1277;24175;-82
2022/09/20 03:00:18;;;;;;;4.60;1.10;;;;;;;9.05;77.77;98928.50;105474;1284;22557;-81
2022/09/20 03:03:17;;;;;;;3.90;1.00;;;;;;;9.06;77.78;98930.24;105574;1283;23284;-80
2022/09/20 03:06:03;;;;;;;4.00;1.10;;;;;;;9.07;77.87;98933.87;105442;1283;25579;-79
2022/09/20 03:08:49;;;;;;;3.80;1.30;;;;;;;9.09;77.72;98938.55;105342;1283;22564;-81
2022/09/20 03:12:10;;;;;;;2.80;1.00;;;;;;;9.10;77.91;98936.51;105350;1284;22621;-86
2022/09/20 03:15:30;;;;;;;3.60;1.10;;;;;;;9.11;77.78;98932.69;105742;1280;25241;-79
2022/09/20 03:18:41;;;;;;;;;;;;;;;;;;;;;
2022/09/20 03:21:57;;;;;;;4.70;1.40;;;;;;;9.13;77.86;98941.08;105671;1279;22607;-85
2022/09/20 03:24:40;;;;;;;4.60;1.50;;;;;;;9.13;77.97;98942.52;105637;1279;22563;-83
2022/09/20 03:27:35;;;;;;;3.20;1.20;;;;;;;9.14;77.95;98943.88;105646;1279;22544;-79
2022/09/20 03:30:13;;;;;;;3.90;1.40;;;;;;;9.15;78.04;98943.94;105636;1280;22530;-86
2022/09/20 03:32:58;;;;;;;8.10;1.60;;;;;;;9.17;77.99;98945.45;105587;1282;22563;-87
2022/09/20 03:35:50;;;;;;;5.20;1.40;;;;;;;9.20;77.99;98942.90;105729;1279;22617;-81
2022/09/20 03:39:08;;;;;;;3.80;1.40;;;;;;;9.24;77.99;98949.59;105996;1271;25291;-79
2022/09/20 03:42:15;;;;;;;6.40;1.90;;;;;;;9.22;77.98;98945.77;105878;1274;22560;-83
2022/09/20 03:45:22;;;;;;;5.50;2.00;;;;;;;9.21;78.16;98946.02;106270;1272;25286;-79
2022/09/20 03:48:32;;;;;;;5.70;1.90;;;;;;;9.17;77.94;98945.95;106284;1272;24375;-83
2022/09/20 03:51:20;;;;;;;6.10;1.90;;;;;;;9.12;77.98;98947.39;106068;1272;23275;-84
2022/09/20 03:54:25;;;;;;;6.50;2.30;;;;;;;9.09;78.10;98943.16;106175;1271;22618;-80
2022/09/20 03:57:12;;;;;;;5.10;2.00;;;;;;;9.06;78.04;98945.27;106094;1275;23383;-80
2022/09/20 04:00:12;;;;;;;;;;;;;;;;;;;;;
2022/09/20 04:02:45;;;;;;;7.10;2.20;;;;;;;9.02;78.09;98947.73;106372;1271;22541;-83
2022/09/20 04:05:49;;;;;;;7.20;2.20;;;;;;;9.01;78.16;98944.78;106244;1271;25231;-80
2022/09/20 04:08:58;;;;;;;;;;;;;;;;;;;;;
2022/09/20 04:12:11;;;;;;;7.10;2.30;;;;;;;9.00;78.21;98945.34;106246;1271;22554;-85
2022/09/20 04:15:01;;;;;;;5.50;2.20;;;;;;;9.03;78.29;98950.68;105725;1281;23956;-81
2022/09/20 04:17:47;;;;;;;7.30;3.00;;;;;;;9.03;78.24;98949.06;105682;1281;22483;-79
2022/09/20 04:20:28;;;;;;;6.30;2.70;;;;;;;9.03;78.25;98955.29;105758;1281;24248;-85
2022/09/20 04:23:04;;;;;;;5.70;2.40;;;;;;;9.04;78.33;98964.48;105674;1281;25593;-78
2022/09/20 04:25:47;;;;;;;6.40;2.50;;;;;;;9.06;78.36;98973.39;105657;1282;24503;-79
2022/09/20 04:28:33;;;;;;;6.10;2.10;;;;;;;9.10;78.38;98975.73;105660;1280;22563;-81
2022/09/20 04:31:17;;;;;;;5.30;2.10;;;;;;;9.16;78.27;98976.06;105618;1282;22563;-85
2022/09/20 04:33:54;;;;;;;5.00;2.00;;;;;;;9.20;78.34;98969.88;105698;1281;22568;-83
2022/09/20 04:37:05;;;;;;;8.20;2.60;;;;;;;9.25;78.37;98969.09;105682;1281;22596;-81
2022/09/20 04:39:58;;;;;;;5.60;2.00;;;;;;;9.26;78.25;98972.19;105650;1279;22567;-86
2022/09/20 04:42:53;;;;;;;5.90;1.70;;;;;;;9.26;78.12;98969.20;105640;1282;22626;-86
2022/09/20 04:46:06;;;;;;;6.30;1.90;;;;;;;9.26;78.20;98969.20;105024;1288;22558;-84
2022/09/20 04:48:48;;;;;;;5.10;2.00;;;;;;;9.25;78.23;98975.62;105065;1288;22586;-78
2022/09/20 04:52:12;;;;;;;5.00;1.80;;;;;;;9.23;78.15;98984.66;105502;1281;25568;-80
2022/09/20 04:55:00;;;;;;;5.80;1.60;;;;;;;9.21;78.30;98987.59;105643;1281;22673;-84
2022/09/20 04:57:40;;;;;;;4.90;1.80;;;;;;;9.26;78.62;98990.46;105616;1281;22730;-79
2022/09/20 05:00:15;;;;;;;6.60;1.70;;;;;;;9.29;78.30;98986.03;105502;1284;22546;-82
2022/09/20 05:03:08;;;;;;;4.60;1.90;;;;;;;9.31;78.18;98989.95;105609;1281;22857;-86
2022/09/20 05:06:16;;;;;;;5.00;2.10;;;;;;;9.36;78.46;98990.71;105651;1281;22562;-85
2022/09/20 05:09:04;;;;;;;5.10;1.70;;;;;;;9.37;78.18;98989.91;105623;1282;22562;-86
2022/09/20 05:12:01;;;;;;;4.40;1.40;;;;;;;9.39;78.45;98991.87;105733;1281;25549;-79
2022/09/20 05:15:00;;;;;;;4.20;1.60;;;;;;;9.44;78.27;98989.92;105699;1281;22544;-80
2022/09/20 05:18:08;;;;;;;6.80;1.50;;;;;;;9.47;78.27;98990.95;105559;1281;22588;-81
2022/09/20 05:21:03;;;;;;;4.60;1.70;;;;;;;9.54;78.47;98996.73;105688;1281;25335;-81
2022/09/20 05:23:40;;;;;;;5.10;1.40;;;;;;;9.57;78.19;99002.20;105936;1271;22621;-84
2022/09/20 05:26:26;;;;;;;5.70;1.20;;;;;;;9.60;78.51;99004.70;106311;1272;22774;-81
2022/09/20 05:29:24;;;;;;;5.10;1.00;;;;;;;9.70;78.35;99002.75;106216;1272;22500;-84
2022/09/20 05:32:37;;;;;;;;;;;;;;;;;;;;;
2022/09/20 05:35:42;;;;;;;8.20;1.50;;;;;;;9.90;78.31;99004.35;106191;1271;24251;-81
2022/09/20 05:38:32;;;;;;;6.20;1.50;;;;;;;9.93;78.14;99003.98;105788;1281;22665;-81
2022/09/20 05:42:28;;;;;;;5.50;1.50;;;;;;;9.97;78.13;99013.65;105754;1281;22558;-86
2022/09/20 05:45:03;;;;;;;5.40;1.30;;;;;;;9.97;78.11;99017.23;105816;1278;25544;-79
2022/09/20 05:47:41;;;;;;;6.70;1.30;;;;;;;9.98;78.29;99016.95;105746;1281;22631;-80
2022/09/20 05:51:17;;;;;;;4.20;1.30;;;;;;;10.04;78.19;99019.20;105799;1278;25227;-79
2022/09/20 05:54:33;;;;;;;4.80;1.40;;;;;;;10.12;78.10;99020.48;105683;1281;23950;-84
2022/09/20 05:57:34;;;;;;;7.10;1.60;;;;;;;10.14;78.09;99023.10;105916;1277;24382;-80
2022/09/20 06:00:27;;;;;;;4.20;1.50;;;;;;;10.13;78.04;99027.65;105959;1278;24335;-84
2022/09/20 06:03:37;;;;;;;5.50;1.40;;;;;;;10.13;78.06;99027.29;105682;1281;22538;-82
2022/09/20 06:06:31;;;;;;;7.10;1.70;;;;;;;10.09;77.89;99026.01;105710;1278;22559;-80
2022/09/20 06:09:35;;;;;;;4.90;1.40;;;;;;;10.19;77.88;99028.10;105770;1277;25185;-81
2022/09/20 06:12:39;;;;;;;9.80;1.70;;;;;;;10.25;77.74;99029.86;105776;1277;22535;-85
2022/09/20 06:15:51;;;;;;;7.40;1.90;;;;;;;10.24;77.87;99033.09;105858;1272;22535;-85
2022/09/20 06:19:31;;;;;;;5.00;1.80;;;;;;;10.23;78.12;99038.16;106336;1271;25445;-82
2022/09/20 06:21:58;;;;;;;7.90;2.40;;;;;;;10.29;78.00;99038.27;106080;1275;22766;-80
2022/09/20 06:24:56;;;;;;;12.20;6.10;;;;;;;10.39;78.19;99038.13;106381;1271;23612;-78
2022/09/20 06:27:34;;;;;;;7.00;2.70;;;;;;;10.58;78.02;99038.16;106021;1272;25429;-80
2022/09/20 06:30:37;;;;;;;15.00;8.80;;;;;;;10.64;77.67;99037.00;106055;1271;22547;-83
2022/09/20 06:33:30;;;;;;;9.00;3.80;;;;;;;10.71;77.90;99038.65;106196;1274;25293;-79
2022/09/20 06:46:22;;;;;;;;;;;;;;;;;;;;;
2022/09/20 06:49:03;;;;;;;6.10;1.70;;;;;;;10.29;77.97;99048.60;105434;1281;25349;-82
2022/09/20 06:51:34;;;;;;;7.60;2.10;;;;;;;10.25;78.11;99050.16;105743;1281;22871;-82
2022/09/20 06:54:24;;;;;;;4.60;1.60;;;;;;;10.24;78.04;99054.27;105644;1284;22556;-85
2022/09/20 06:57:18;;;;;;;5.90;2.10;;;;;;;10.25;77.99;99054.20;105598;1281;22586;-84
2022/09/20 07:00:00;;;;;;;6.80;1.80;;;;;;;10.32;78.41;99054.60;105664;1281;26737;-78
2022/09/20 07:02:29;;;;;;;4.20;1.70;;;;;;;10.41;78.23;99058.63;105635;1281;25311;-81
2022/09/20 07:04:59;;;;;;;5.50;1.80;;;;;;;10.46;78.10;99064.32;105701;1281;25076;-81
2022/09/20 07:07:42;;;;;;;5.00;2.00;;;;;;;10.46;77.92;99066.63;105641;1281;22611;-82
2022/09/20 07:10:13;;;;;;;5.40;1.90;;;;;;;10.42;78.16;99063.48;105684;1281;24363;-78
2022/09/20 07:12:43;;;;;;;4.80;2.30;;;;;;;10.45;78.10;99066.52;105585;1281;22588;-84
2022/09/20 07:15:21;;;;;;;6.40;2.20;;;;;;;10.50;78.35;99073.80;105671;1281;22765;-84
2022/09/20 07:17:49;;;;;;;7.70;2.40;;;;;;;10.53;78.22;99073.58;105580;1281;23956;-82
2022/09/20 07:20:20;;;;;;;8.00;2.90;;;;;;;10.52;78.22;99076.45;105690;1280;22803;-81
2022/09/20 07:22:52;;;;;;;5.90;1.90;;;;;;;10.55;78.21;99077.36;105728;1281;25594;-79
2022/09/20 07:25:22;;;;;;;6.10;2.30;;;;;;;10.56;78.12;99082.99;105711;1275;22647;-82
2022/09/20 07:27:56;;;;;;;7.20;2.20;;;;;;;10.53;78.35;99082.80;106223;1271;22688;-78
2022/09/20 07:30:38;;;;;;;8.50;3.40;;;;;;;10.52;78.14;99084.49;106073;1272;22551;-84
2022/09/20 07:33:18;;;;;;;7.80;3.50;;;;;;;10.57;78.38;99086.86;106212;1274;22576;-79
2022/09/20 07:36:00;;;;;;;7.70;3.50;;;;;;;10.71;78.29;99086.20;106115;1274;24355;-80
2022/09/20 07:38:33;;;;;;;6.60;2.60;;;;;;;10.84;78.25;99090.59;106096;1272;25352;-79
2022/09/20 07:41:02;;;;;;;7.10;2.80;;;;;;;10.95;78.02;99093.13;106193;1274;22693;-84
2022/09/20 07:43:35;;;;;;;8.40;3.30;;;;;;;11.15;78.38;99094.88;106209;1271;25356;-79
2022/09/20 07:46:03;;;;;;;7.60;3.00;;;;;;;11.33;78.29;99093.38;106095;1274;24361;-85
2022/09/20 07:48:41;;;;;;;8.70;3.70;;;;;;;11.48;77.85;99099.70;105980;1271;22572;-80
2022/09/20 07:51:11;;;;;;;9.30;3.70;;;;;;;11.68;77.98;99093.23;106166;1271;24265;-79
2022/09/20 07:53:55;;;;;;;6.30;2.40;;;;;;;11.89;77.90;99096.95;105951;1274;22701;-80
2022/09/20 07:56:25;;;;;;;7.50;2.80;;;;;;;12.00;77.18;99100.45;106226;1271;22566;-78
2022/09/20 07:59:03;;;;;;;7.60;2.90;;;;;;;11.83;76.96;99102.25;106072;1271;22716;-80
2022/09/20 08:01:45;;;;;;;7.20;3.10;;;;;;;11.70;77.23;99105.54;106001;1271;22681;-81
2022/09/20 08:04:15;;;;;;;7.20;3.20;;;;;;;11.56;77.25;99112.70;106239;1271;26525;-80
2022/09/20 08:06:57;;;;;;;7.20;2.50;;;;;;;11.48;77.56;99116.17;105986;1274;26926;-79
2022/09/20 08:09:33;;;;;;;7.40;2.40;;;;;;;11.55;77.40;99113.83;106072;1271;23605;-80
2022/09/20 08:12:07;;;;;;;5.70;2.60;;;;;;;11.78;77.66;99105.11;106076;1271;22573;-81
2022/09/20 08:14:46;;;;;;;7.70;2.90;;;;;;;11.93;77.28;99107.39;106204;1271;23913;-80
2022/09/20 08:17:16;;;;;;;6.20;2.40;;;;;;;11.92;77.50;99108.21;105944;1271;22547;-79
2022/09/20 08:19:55;;;;;;;7.80;2.50;;;;;;;11.88;77.02;99111.17;105862;1274;22825;-80
2022/09/20 08:22:23;;;;;;;6.60;2.70;;;;;;;11.81;77.17;99113.13;106067;1272;22543;-84
2022/09/20 08:24:50;;;;;;;7.70;2.70;;;;;;;11.81;77.21;99113.85;106089;1271;22544;-80
2022/09/20 08:27:21;;;;;;;4.80;2.00;;;;;;;11.83;77.11;99117.05;105975;1274;25531;-78
2022/09/20 08:30:25;;;;;;;5.60;2.50;;;;;;;11.90;77.09;99115.67;106149;1272;24272;-78
2022/09/20 08:32:58;;;;;;;7.30;2.80;;;;;;;11.91;77.18;99116.84;106161;1274;25212;-80
2022/09/20 08:35:29;;;;;;;7.40;3.50;;;;;;;12.00;77.12;99119.52;106125;1274;22537;-79
2022/09/20 08:37:59;;;;;;;8.40;3.60;;;;;;;11.98;77.14;99124.13;105915;1274;25652;-78
2022/09/20 08:40:35;;;;;;;7.10;3.40;;;;;;;11.96;77.06;99128.05;105964;1274;22554;-85
2022/09/20 08:43:02;;;;;;;6.50;3.30;;;;;;;11.87;77.01;99127.15;106060;1272;24777;-85
2022/09/20 08:45:29;;;;;;;8.30;2.70;;;;;;;12.00;77.27;99127.92;105974;1277;25514;-78
2022/09/20 08:48:04;;;;;;;8.70;3.40;;;;;;;12.44;77.58;99125.17;106172;1271;25419;-79
2022/09/20 08:50:33;;;;;;;9.40;3.20;;;;;;;12.98;77.48;99125.86;106312;1271;22631;-84
2022/09/20 08:53:15;;;;;;;;;;;;;;;;;;;;;
2022/09/20 08:55:47;;;;;;;6.90;3.00;;;;;;;13.09;76.41;99126.08;106210;1274;24397;-80
2022/09/20 08:58:30;;;;;;;5.60;2.60;;;;;;;13.19;76.78;99129.52;106076;1271;22767;-81
2022/09/20 09:00:57;;;;;;;5.20;2.00;;;;;;;13.50;76.58;99126.84;106229;1272;22578;-82
2022/09/20 09:03:27;;;;;;;4.50;1.60;;;;;;;13.43;75.85;99129.89;105965;1271;22709;-83
2022/09/20 09:06:12;;;;;;;6.20;2.10;;;;;;;13.27;75.79;99130.89;106295;1271;22591;-80
2022/09/20 09:08:43;;;;;;;5.40;2.00;;;;;;;13.27;75.84;99133.05;106248;1271;25489;-79
2022/09/20 09:11:20;;;;;;;7.00;2.10;;;;;;;13.27;75.68;99132.33;106402;1271;25232;-77
2022/09/20 09:14:47;;;;;;;6.40;2.10;;;;;;;13.13;75.28;99130.71;106085;1271;22532;-83
2022/09/20 09:17:02;;;;;;;5.00;1.70;;;;;;;12.99;75.39;99129.36;106125;1271;22638;-83
2022/09/20 09:20:11;;;;;;;4.60;1.80;;;;;;;12.87;75.45;99133.95;106338;1271;25229;-85
2022/09/20 09:22:41;;;;;;;8.40;2.00;;;;;;;12.91;75.83;99136.98;106309;1271;22537;-88
2022/09/20 09:25:16;;;;;;;5.60;1.90;;;;;;;13.10;75.98;99132.06;106221;1274;22611;-86
2022/09/20 09:28:30;;;;;;;7.70;2.00;;;;;;;13.21;75.84;99137.78;106389;1272;24240;-82
2022/09/20 09:31:30;;;;;;;5.60;1.70;;;;;;;13.28;75.76;99136.15;106337;1274;25408;-80
2022/09/20 09:34:28;;;;;;;6.30;2.00;;;;;;;13.64;75.64;99136.58;105923;1274;24283;-79
2022/09/20 09:36:57;;;;;;;5.50;2.00;;;;;;;13.92;75.08;99135.61;106168;1273;22573;-81
2022/09/20 09:39:43;;;;;;;;;;;;;;;;;;;;;
2022/09/20 09:42:27;;;;;;;5.30;2.00;;;;;;;13.83;74.90;99142.27;106024;1272;22537;-78
2022/09/20 09:45:25;;;;;;;7.70;2.10;;;;;;;13.51;74.19;99141.37;106115;1271;25204;-82
2022/09/20 09:48:03;;;;;;;8.70;2.50;;;;;;;13.42;75.21;99141.39;105819;1271;24258;-80
2022/09/20 09:50:36;;;;;;;4.30;1.40;;;;;;;13.45;74.77;99143.48;106162;1271;23170;-83
2022/09/20 09:53:19;;;;;;;5.80;1.50;;;;;;;13.45;74.51;99141.34;106196;1271;25342;-79
2022/09/20 09:56:11;;;;;;;6.30;1.80;;;;;;;13.54;74.86;99143.49;106132;1271;25390;-82
2022/09/20 09:59:39;;;;;;;9.00;2.50;;;;;;;13.72;74.99;99146.79;106270;1271;22544;-81
2022/09/20 10:02:53;;;;;;;5.80;1.80;;;;;;;13.87;75.11;99149.27;105351;1281;22540;-81
2022/09/20 10:05:40;;;;;;;6.10;2.30;;;;;;;13.80;74.57;99146.83;105436;1282;24159;-80
2022/09/20 10:08:34;;;;;;;9.30;2.10;;;;;;;13.73;75.06;99148.99;105542;1281;22566;-81
2022/09/20 10:11:58;;;;;;;4.20;1.40;;;;;;;13.75;75.23;99150.33;105344;1281;25707;-80
2022/09/20 10:14:37;;;;;;;10.50;5.70;;;;;;;13.78;74.61;99152.17;105461;1281;24255;-81
2022/09/20 10:17:41;;;;;;;7.80;2.30;;;;;;;14.02;75.00;99149.59;105554;1281;25265;-82
2022/09/20 10:21:30;;;;;;;8.90;1.90;;;;;;;14.33;74.49;99151.45;105278;1282;24393;-79
2022/09/20 10:24:29;;;;;;;6.80;1.70;;;;;;;14.46;74.75;99151.96;105228;1280;22685;-81
2022/09/20 10:27:36;;;;;;;6.00;1.80;;;;;;;14.64;74.08;99149.50;105439;1279;22543;-82
2022/09/20 10:30:42;;;;;;;9.00;1.60;;;;;;;14.42;74.02;99154.87;105507;1280;22565;-83
2022/09/20 10:33:36;;;;;;;6.90;1.90;;;;;;;14.26;73.47;99156.91;105508;1281;22572;-80
2022/09/20 10:36:46;;;;;;;7.90;1.80;;;;;;;13.97;73.33;99165.14;105517;1279;25325;-81
2022/09/20 10:40:00;;;;;;;6.80;1.80;;;;;;;14.05;73.84;99159.41;105891;1271;26465;-80
2022/09/20 10:43:15;;;;;;;6.70;1.40;;;;;;;14.25;73.57;99160.95;106139;1271;24208;-81
2022/09/20 10:46:01;;;;;;;6.60;1.60;;;;;;;14.18;74.06;99160.10;106216;1271;22571;-81
2022/09/20 10:49:05;;;;;;;6.90;1.70;;;;;;;14.19;73.53;99166.63;106078;1271;22507;-80
2022/09/20 10:52:07;;;;;;;4.70;1.60;;;;;;;14.22;73.63;99164.98;106118;1272;22566;-80
2022/09/20 10:55:07;;;;;;;3.00;1.30;;;;;;;14.24;73.23;99166.16;106018;1273;25350;-80
2022/09/20 11:01:49;;;;;;;6.90;1.60;;;;;;;13.88;73.60;99168.00;105649;1280;25333;-81
2022/09/20 11:04:51;;;;;;;5.00;1.80;;;;;;;13.92;73.86;99165.90;105628;1279;24536;-81
2022/09/20 11:07:56;;;;;;;5.70;1.60;;;;;;;13.82;73.46;99167.08;105664;1279;24450;-80
2022/09/20 11:10:38;;;;;;;4.70;1.60;;;;;;;13.71;73.08;99162.85;105640;1279;22544;-85
2022/09/20 11:13:26;;;;;;;6.00;1.80;;;;;;;13.69;73.40;99165.48;105559;1279;22547;-80
2022/09/20 11:16:02;;;;;;;6.40;1.60;;;;;;;13.72;73.07;99167.68;105571;1279;24274;-79
2022/09/20 11:19:12;;;;;;;6.90;1.90;;;;;;;13.69;72.94;99169.23;105617;1279;26697;-80
2022/09/20 11:21:52;;;;;;;9.20;1.80;;;;;;;13.63;73.23;99169.02;105486;1280;24245;-81
2022/09/20 11:24:50;;;;;;;6.00;1.80;;;;;;;13.59;73.30;99168.64;105532;1279;22563;-82
2022/09/20 11:27:31;;;;;;;5.30;1.50;;;;;;;13.49;73.39;99169.26;105457;1279;26532;-81
2022/09/20 11:30:14;;;;;;;6.30;1.50;;;;;;;13.46;73.34;99166.12;105624;1280;25427;-80
2022/09/20 11:32:51;;;;;;;6.70;1.80;;;;;;;13.40;73.26;99165.40;105895;1273;25284;-79
2022/09/20 11:35:49;;;;;;;7.20;1.60;;;;;;;13.42;73.32;99160.94;106217;1271;22558;-81
2022/09/20 11:38:40;;;;;;;4.40;1.50;;;;;;;13.44;73.05;99160.77;106303;1271;24245;-83
2022/09/20 11:41:18;;;;;;;5.20;1.50;;;;;;;13.62;73.25;99159.27;106325;1271;22556;-85
2022/09/20 11:43:52;;;;;;;4.70;1.60;;;;;;;14.00;73.25;99161.09;106385;1271;24323;-81
2022/09/20 11:46:37;;;;;;;3.90;1.50;;;;;;;14.36;73.16;99160.86;106048;1271;25228;-78
2022/09/20 11:49:20;;;;;;;5.00;1.30;;;;;;;14.47;72.51;99159.73;106110;1271;22543;-83
2022/09/20 11:52:27;;;;;;;6.30;1.80;;;;;;;14.41;72.27;99158.16;106341;1271;24280;-82
2022/09/20 11:55:42;;;;;;;7.60;1.90;;;;;;;14.35;72.97;99157.69;106152;1271;25502;-80
2022/09/20 11:58:15;;;;;;;7.10;1.50;;;;;;;14.52;72.66;99157.21;106303;1271;26443;-81
2022/09/20 12:00:45;;;;;;;4.30;1.30;;;;;;;14.61;72.51;99150.46;106216;1271;25284;-83
2022/09/20 12:03:34;;;;;;;12.00;2.70;;;;;;;14.83;72.53;99149.22;106247;1272;22563;-83
2022/09/20 12:06:44;;;;;;;6.90;1.70;;;;;;;14.94;72.30;99152.60;106374;1271;22701;-79
2022/09/20 12:09:35;;;;;;;4.40;1.30;;;;;;;14.78;71.78;99164.02;106157;1273;24265;-86
2022/09/20 12:12:29;;;;;;;4.70;0.90;;;;;;;14.42;71.72;99171.66;106369;1271;22547;-80
2022/09/20 12:15:01;;;;;;;4.90;1.10;;;;;;;13.96;71.77;99176.17;106067;1271;24395;-82
2022/09/20 12:18:04;;;;;;;4.20;1.10;;;;;;;13.48;71.53;99174.74;106106;1271;22701;-85
2022/09/20 12:20:31;;;;;;;4.10;0.90;;;;;;;13.09;72.31;99173.82;106075;1271;24224;-79
2022/09/20 12:23:56;;;;;;;2.60;0.80;;;;;;;12.98;72.88;99172.31;106003;1273;22670;-79
2022/09/20 12:26:26;;;;;;;5.10;1.00;;;;;;;12.97;72.91;99163.12;106339;1271;25523;-79
2022/09/20 12:29:01;;;;;;;3.20;1.00;;;;;;;13.00;73.11;99162.03;106436;1271;25331;-79
2022/09/20 12:31:48;;;;;;;4.40;1.00;;;;;;;13.06;73.25;99165.09;106014;1274;22651;-81
2022/09/20 12:34:18;;;;;;;4.10;1.20;;;;;;;13.07;72.59;99168.58;106222;1271;24214;-81
2022/09/20 12:37:17;;;;;;;5.90;2.00;;;;;;;12.94;72.55;99166.19;106305;1271;24186;-84
2022/09/20 12:40:15;;;;;;;7.50;1.60;;;;;;;12.79;72.47;99166.34;106487;1271;22527;-85
2022/09/20 12:42:46;;;;;;;4.20;1.50;;;;;;;12.71;72.80;99161.92;106219;1271;22563;-83
2022/09/20 12:45:40;;;;;;;;;;;;;;;;;;;;;
2022/09/20 12:48:18;;;;;;;5.90;1.40;;;;;;;12.77;72.91;99163.30;106016;1271;25346;-80
2022/09/20 12:54:12;;;;;;;5.70;2.10;;;;;;;12.97;72.91;99161.48;106351;1271;22538;-81
2022/09/20 12:56:45;;;;;;;10.60;2.50;;;;;;;13.12;72.85;99161.74;106206;1274;22534;-85
2022/09/20 12:59:23;;;;;;;6.60;1.80;;;;;;;13.26;73.17;99161.89;106275;1273;22598;-80
2022/09/20 13:01:53;;;;;;;6.60;2.10;;;;;;;13.38;72.89;99160.00;106285;1274;24412;-82
2022/09/20 13:05:12;;;;;;;6.30;1.60;;;;;;;13.51;73.04;99159.24;105952;1271;22611;-81
2022/09/20 13:07:59;;;;;;;6.00;1.30;;;;;;;13.68;72.86;99160.53;105702;1279;25583;-85
2022/09/20 13:10:38;;;;;;;4.80;1.00;;;;;;;13.87;73.09;99166.83;105368;1280;23953;-80
2022/09/20 13:13:41;;;;;;;3.70;0.90;;;;;;;14.18;72.59;99162.20;105869;1279;22596;-80
2022/09/20 13:16:40;;;;;;;5.50;1.40;;;;;;;14.55;72.21;99157.82;105866;1278;24297;-81
2022/09/20 13:19:28;;;;;;;6.20;0.90;;;;;;;14.85;72.20;99150.22;105839;1277;25246;-81
2022/09/20 13:22:47;;;;;;;4.20;1.00;;;;;;;15.13;71.84;99153.04;105768;1279;22566;-80
2022/09/20 13:25:25;;;;;;;5.70;1.40;;;;;;;15.39;71.84;99154.11;105678;1280;22542;-80
2022/09/20 13:28:43;;;;;;;6.50;1.40;;;;;;;15.58;71.37;99153.98;105874;1277;22786;-79
2022/09/20 13:31:24;;;;;;;8.00;1.40;;;;;;;15.64;71.38;99153.51;105820;1279;22547;-80
2022/09/20 13:33:57;;;;;;;4.70;1.20;;;;;;;15.77;71.30;99161.09;105817;1280;22567;-85
2022/09/20 13:36:41;;;;;;;4.70;1.00;;;;;;;15.88;71.17;99161.49;105923;1279;22564;-81
2022/09/20 13:39:25;;;;;;;2.70;0.70;;;;;;;16.01;71.10;99160.84;105806;1279;23072;-84
2022/09/20 13:42:01;;;;;;;5.70;0.90;;;;;;;16.04;70.52;99159.55;105773;1278;22608;-81
2022/09/20 13:44:33;;;;;;;3.20;0.80;;;;;;;16.06;70.84;99157.34;105917;1273;24402;-81
2022/09/20 13:47:31;;;;;;;4.30;0.70;;;;;;;16.15;70.52;99156.31;106043;1274;23828;-80
2022/09/20 13:50:20;;;;;;;3.80;0.90;;;;;;;16.10;70.02;99159.48;106306;1271;22541;-85
2022/09/20 13:52:51;;;;;;;3.10;0.80;;;;;;;16.19;70.36;99155.74;106066;1271;23910;-85
2022/09/20 13:55:24;;;;;;;4.80;0.90;;;;;;;16.32;70.44;99153.28;106557;1271;22572;-78
2022/09/20 13:58:15;;;;;;;;;;;;;;;;;;;;;
2022/09/20 14:00:53;;;;;;;1.80;0.50;;;;;;;16.72;69.87;99151.98;106465;1273;22581;-86